createdAt,value
2018-11-13T00:00:24.646Z,14.00
2018-11-13T00:02:53.657Z,14.00
2018-11-13T00:05:22.726Z,14.10
2018-11-13T00:07:51.198Z,14.20
2018-11-13T00:10:19.574Z,14.00
2018-11-13T00:12:48.007Z,14.00
2018-11-13T00:15:16.394Z,13.90
2018-11-13T00:17:44.802Z,14.00
2018-11-13T00:20:14.320Z,14.00
2018-11-13T00:22:43.334Z,14.00
2018-11-13T00:25:12.832Z,14.00
2018-11-13T00:27:42.068Z,14.00
2018-11-13T00:30:14.073Z,14.10
2018-11-13T00:32:43.005Z,14.10
2018-11-13T00:35:12.202Z,14.10
2018-11-13T00:37:40.545Z,14.10
2018-11-13T00:40:10.007Z,14.00
2018-11-13T00:42:38.718Z,14.00
2018-11-13T00:45:07.603Z,14.00
2018-11-13T00:47:35.981Z,14.00
2018-11-13T00:50:04.733Z,13.90
2018-11-13T00:52:33.186Z,13.90
2018-11-13T00:55:01.765Z,13.90
2018-11-13T00:57:30.030Z,13.90
2018-11-13T00:59:58.439Z,13.90
2018-11-13T01:02:26.926Z,14.00
2018-11-13T01:04:55.560Z,14.00
2018-11-13T01:07:23.879Z,14.00
2018-11-13T01:09:52.232Z,13.90
2018-11-13T01:12:20.712Z,14.00
2018-11-13T01:14:49.083Z,14.00
2018-11-13T01:17:17.560Z,14.00
2018-11-13T01:19:45.900Z,13.90
2018-11-13T01:22:14.290Z,13.90
2018-11-13T01:24:42.719Z,13.90
2018-11-13T01:27:11.069Z,14.00
2018-11-13T01:29:39.519Z,14.00
2018-11-13T01:32:07.972Z,13.90
2018-11-13T01:34:36.363Z,14.00
2018-11-13T01:37:04.855Z,14.00
2018-11-13T01:39:33.283Z,14.00
2018-11-13T01:42:01.656Z,14.00
2018-11-13T01:44:34.107Z,14.00
2018-11-13T01:47:02.503Z,13.90
2018-11-13T01:49:30.925Z,13.90
2018-11-13T01:51:59.310Z,13.90
2018-11-13T01:54:27.788Z,13.80
2018-11-13T01:56:56.119Z,13.80
2018-11-13T01:59:24.575Z,13.80
2018-11-13T02:01:52.983Z,13.70
2018-11-13T02:04:21.386Z,13.70
2018-11-13T02:06:49.789Z,13.70
2018-11-13T02:09:18.209Z,13.70
2018-11-13T02:11:46.589Z,13.70
2018-11-13T02:14:15.002Z,13.70
2018-11-13T02:16:43.401Z,13.70
2018-11-13T02:19:11.793Z,13.70
2018-11-13T02:21:40.209Z,13.70
2018-11-13T02:24:08.650Z,13.70
2018-11-13T02:26:37.068Z,13.60
2018-11-13T02:29:06.029Z,13.50
2018-11-13T02:31:34.428Z,13.50
2018-11-13T02:34:02.843Z,13.40
2018-11-13T02:36:31.446Z,13.30
2018-11-13T02:38:59.881Z,13.30
2018-11-13T02:41:28.247Z,13.30
2018-11-13T02:43:56.618Z,13.30
2018-11-13T02:46:25.028Z,13.10
2018-11-13T02:48:55.773Z,13.10
2018-11-13T02:51:24.236Z,13.10
2018-11-13T02:53:52.625Z,13.10
2018-11-13T02:56:21.022Z,13.00
2018-11-13T02:58:49.436Z,13.00
2018-11-13T03:01:17.863Z,13.00
2018-11-13T03:03:46.271Z,13.10
2018-11-13T03:06:14.683Z,13.20
2018-11-13T03:08:43.070Z,13.10
2018-11-13T03:11:11.715Z,13.10
2018-11-13T03:13:40.177Z,13.00
2018-11-13T03:16:08.524Z,13.00
2018-11-13T03:18:37.231Z,13.10
2018-11-13T03:21:05.870Z,13.10
2018-11-13T03:23:34.260Z,13.10
2018-11-13T03:26:02.703Z,13.10
2018-11-13T03:28:31.120Z,13.10
2018-11-13T03:30:59.565Z,13.00
2018-11-13T03:33:27.950Z,13.00
2018-11-13T03:35:56.406Z,12.90
2018-11-13T03:38:24.832Z,13.00
2018-11-13T03:41:24.442Z,13.00
2018-11-13T03:43:54.006Z,13.00
2018-11-13T03:46:22.410Z,13.00
2018-11-13T03:48:50.798Z,12.90
2018-11-13T03:51:19.207Z,12.80
2018-11-13T03:53:47.590Z,12.80
2018-11-13T03:56:15.981Z,12.80
2018-11-13T03:58:44.370Z,12.80
2018-11-13T04:01:12.751Z,12.80
2018-11-13T04:03:41.125Z,12.80
2018-11-13T04:06:09.561Z,12.80
2018-11-13T04:08:37.932Z,12.70
2018-11-13T04:11:06.567Z,12.70
2018-11-13T04:13:34.927Z,12.70
2018-11-13T04:16:03.345Z,12.70
2018-11-13T04:18:31.743Z,12.70
2018-11-13T04:21:00.116Z,12.70
2018-11-13T04:23:28.479Z,12.80
2018-11-13T04:25:56.878Z,12.80
2018-11-13T04:28:25.226Z,12.80
2018-11-13T04:30:53.725Z,12.80
2018-11-13T04:33:22.002Z,12.70
2018-11-13T04:35:50.361Z,12.70
2018-11-13T04:38:18.743Z,12.80
2018-11-13T04:40:47.131Z,12.80
2018-11-13T04:43:15.496Z,12.80
2018-11-13T04:45:43.886Z,12.80
2018-11-13T04:48:12.239Z,12.80
2018-11-13T04:50:40.671Z,12.80
2018-11-13T04:53:09.014Z,12.80
2018-11-13T04:55:37.822Z,12.90
2018-11-13T04:58:06.226Z,12.80
2018-11-13T05:00:34.606Z,12.70
2018-11-13T05:03:02.979Z,12.70
2018-11-13T05:05:31.353Z,12.60
2018-11-13T05:07:59.706Z,12.50
2018-11-13T05:10:28.102Z,12.50
2018-11-13T05:12:56.466Z,12.50
2018-11-13T05:15:24.938Z,12.60
2018-11-13T05:17:53.342Z,12.60
2018-11-13T05:20:21.730Z,12.60
2018-11-13T05:22:50.085Z,12.60
2018-11-13T05:25:19.587Z,12.50
2018-11-13T05:27:48.153Z,13.40
2018-11-13T05:30:18.812Z,12.50
2018-11-13T05:32:47.236Z,12.50
2018-11-13T05:35:16.695Z,12.50
2018-11-13T05:37:45.565Z,12.50
2018-11-13T05:40:15.962Z,12.50
2018-11-13T05:42:44.331Z,12.50
2018-11-13T05:45:14.000Z,12.50
2018-11-13T05:47:42.381Z,12.50
2018-11-13T05:50:12.350Z,12.50
2018-11-13T05:52:41.691Z,12.60
2018-11-13T05:55:10.559Z,12.60
2018-11-13T05:57:38.959Z,12.60
2018-11-13T06:00:10.732Z,12.50
2018-11-13T06:02:39.210Z,12.50
2018-11-13T06:05:07.646Z,12.60
2018-11-13T06:07:36.115Z,12.60
2018-11-13T06:10:04.775Z,12.50
2018-11-13T06:12:33.183Z,12.50
2018-11-13T06:15:01.577Z,12.60
2018-11-13T06:17:30.063Z,12.50
2018-11-13T06:19:58.521Z,12.50
2018-11-13T06:22:26.913Z,12.50
2018-11-13T06:24:55.654Z,12.50
2018-11-13T06:27:24.078Z,12.50
2018-11-13T06:29:52.451Z,12.50
2018-11-13T06:32:20.861Z,12.50
2018-11-13T06:34:49.222Z,12.60
2018-11-13T06:37:17.630Z,12.50
2018-11-13T06:39:46.008Z,12.50
2018-11-13T06:42:14.390Z,12.60
2018-11-13T06:44:42.765Z,12.60
2018-11-13T06:47:11.154Z,12.60
2018-11-13T06:49:39.557Z,12.70
2018-11-13T06:52:07.939Z,12.60
2018-11-13T06:55:44.171Z,12.60
2018-11-13T06:58:12.655Z,12.60
2018-11-13T07:00:41.054Z,12.50
2018-11-13T07:03:09.503Z,12.50
2018-11-13T07:05:37.915Z,12.50
2018-11-13T07:08:06.322Z,12.50
2018-11-13T07:10:34.720Z,12.50
2018-11-13T07:13:03.090Z,12.40
2018-11-13T07:15:32.131Z,12.50
2018-11-13T07:18:02.071Z,12.50
2018-11-13T07:20:31.778Z,12.40
2018-11-13T07:23:00.273Z,12.50
2018-11-13T07:25:28.755Z,12.40
2018-11-13T07:27:57.196Z,12.40
2018-11-13T07:30:26.307Z,12.40
2018-11-13T07:32:54.666Z,12.40
2018-11-13T07:35:23.488Z,12.40
2018-11-13T07:37:53.498Z,12.30
2018-11-13T07:40:22.161Z,12.40
2018-11-13T07:42:50.600Z,12.50
2018-11-13T07:45:19.194Z,12.50
2018-11-13T07:47:47.995Z,12.50
2018-11-13T07:50:16.526Z,12.50
2018-11-13T07:52:44.940Z,12.40
2018-11-13T07:55:14.287Z,12.40
2018-11-13T07:57:42.666Z,12.50
2018-11-13T08:00:15.035Z,12.40
2018-11-13T08:02:44.522Z,12.40
2018-11-13T08:05:12.967Z,12.40
2018-11-13T08:07:41.351Z,12.50
2018-11-13T08:10:10.811Z,12.50
2018-11-13T08:12:39.383Z,12.50
2018-11-13T08:15:10.942Z,12.50
2018-11-13T08:17:39.525Z,12.50
2018-11-13T08:20:09.561Z,12.60
2018-11-13T08:22:37.967Z,12.50
2018-11-13T08:25:08.029Z,12.50
2018-11-13T08:27:37.171Z,12.50
2018-11-13T08:30:08.964Z,12.40
2018-11-13T08:32:37.440Z,12.40
2018-11-13T08:35:07.148Z,12.40
2018-11-13T08:37:35.402Z,12.40
2018-11-13T08:40:03.959Z,12.40
2018-11-13T08:42:32.431Z,12.40
2018-11-13T08:45:00.837Z,12.50
2018-11-13T08:47:29.286Z,12.40
2018-11-13T08:49:57.647Z,12.40
2018-11-13T08:52:26.060Z,12.40
2018-11-13T08:54:54.463Z,12.50
2018-11-13T08:57:22.852Z,12.50
2018-11-13T08:59:53.691Z,12.50
2018-11-13T09:02:22.109Z,12.40
2018-11-13T09:04:50.556Z,12.50
2018-11-13T09:07:18.910Z,12.50
2018-11-13T09:09:47.267Z,12.50
2018-11-13T09:12:15.861Z,12.50
2018-11-13T09:14:44.212Z,12.40
2018-11-13T09:17:12.607Z,12.40
2018-11-13T09:19:40.967Z,12.50
2018-11-13T09:22:09.994Z,12.50
2018-11-13T09:24:38.358Z,12.40
2018-11-13T09:27:06.734Z,12.50
2018-11-13T09:29:35.225Z,12.50
2018-11-13T09:32:03.669Z,12.50
2018-11-13T09:34:32.001Z,12.60
2018-11-13T09:37:00.373Z,12.60
2018-11-13T09:39:29.234Z,12.60
2018-11-13T09:41:58.218Z,12.60
2018-11-13T09:44:26.595Z,12.70
2018-11-13T09:46:55.022Z,12.70
2018-11-13T09:49:23.425Z,12.70
2018-11-13T09:51:51.931Z,12.70
2018-11-13T09:54:20.340Z,12.70
2018-11-13T09:56:48.714Z,12.90
2018-11-13T09:59:17.154Z,12.90
2018-11-13T10:01:46.136Z,12.90
2018-11-13T10:04:14.644Z,12.90
2018-11-13T10:06:42.619Z,13.10
2018-11-13T10:09:12.650Z,13.10
2018-11-13T10:11:42.669Z,13.10
2018-11-13T10:14:11.474Z,13.20
2018-11-13T10:16:40.414Z,13.20
2018-11-13T10:19:09.979Z,13.20
2018-11-13T10:21:38.386Z,13.20
2018-11-13T10:24:07.658Z,13.30
2018-11-13T10:26:36.253Z,13.40
2018-11-13T10:29:04.719Z,13.40
2018-11-13T10:31:33.116Z,13.00
2018-11-13T10:34:01.645Z,13.20
2018-11-13T10:36:30.114Z,13.30
2018-11-13T10:38:58.494Z,13.50
2018-11-13T10:41:26.977Z,13.60
2018-11-13T10:43:55.395Z,13.60
2018-11-13T10:46:23.827Z,13.50
2018-11-13T10:48:52.266Z,13.40
2018-11-13T10:51:20.631Z,13.70
2018-11-13T10:53:49.075Z,13.70
2018-11-13T10:56:17.677Z,14.00
2018-11-13T10:58:46.042Z,13.90
2018-11-13T11:01:19.722Z,14.10
2018-11-13T11:03:59.418Z,14.00
2018-11-13T11:06:28.328Z,14.10
2018-11-13T11:08:56.780Z,13.70
2018-11-13T11:11:25.185Z,13.70
2018-11-13T11:13:53.838Z,13.50
2018-11-13T11:16:22.220Z,13.50
2018-11-13T11:18:50.838Z,13.60
2018-11-13T11:21:19.180Z,13.60
2018-11-13T11:23:47.677Z,13.70
2018-11-13T11:26:16.043Z,13.80
2018-11-13T11:28:44.509Z,13.90
2018-11-13T11:31:12.940Z,13.80
2018-11-13T11:33:41.412Z,13.90
2018-11-13T11:36:09.758Z,14.00
2018-11-13T11:38:38.373Z,13.90
2018-11-13T11:41:06.773Z,14.10
2018-11-13T11:43:35.183Z,14.30
2018-11-13T11:46:03.543Z,14.30
2018-11-13T11:48:31.989Z,14.20
2018-11-13T11:51:00.378Z,14.20
2018-11-13T11:53:28.771Z,14.10
2018-11-13T11:55:57.132Z,14.00
2018-11-13T11:58:25.533Z,14.00
2018-11-13T12:00:53.918Z,14.10
2018-11-13T12:03:22.695Z,13.90
2018-11-13T12:05:51.176Z,14.00
2018-11-13T12:08:19.637Z,14.20
2018-11-13T12:10:48.051Z,14.30
2018-11-13T12:13:16.437Z,14.10
2018-11-13T12:15:44.819Z,14.30
2018-11-13T12:18:13.803Z,14.50
2018-11-13T12:20:42.263Z,14.40
2018-11-13T12:23:10.966Z,14.20
2018-11-13T12:25:39.473Z,13.90
2018-11-13T12:28:08.517Z,14.20
2018-11-13T12:30:37.011Z,14.10
2018-11-13T12:33:06.298Z,14.10
2018-11-13T12:35:34.922Z,14.20
2018-11-13T12:38:03.324Z,14.10
2018-11-13T12:40:31.816Z,14.20
2018-11-13T12:43:00.237Z,14.20
2018-11-13T12:45:28.822Z,14.30
2018-11-13T12:47:57.272Z,14.30
2018-11-13T12:50:30.089Z,14.30
2018-11-13T12:52:58.510Z,14.20
2018-11-13T12:55:27.011Z,14.40
2018-11-13T12:57:55.420Z,14.70
2018-11-13T13:00:25.459Z,14.50
2018-11-13T13:02:53.903Z,14.40
2018-11-13T13:05:22.603Z,15.00
2018-11-13T13:07:50.982Z,15.80
2018-11-13T13:10:20.384Z,16.30
2018-11-13T13:12:48.816Z,17.20
2018-11-13T13:15:17.842Z,17.60
2018-11-13T13:17:46.494Z,16.90
2018-11-13T13:20:17.139Z,17.10
2018-11-13T13:22:46.707Z,18.20
2018-11-13T13:25:16.342Z,15.80
2018-11-13T13:27:44.799Z,16.20
2018-11-13T13:30:15.785Z,15.70
2018-11-13T13:32:44.680Z,16.60
2018-11-13T13:35:37.226Z,15.80
2018-11-13T13:38:06.804Z,15.40
2018-11-13T13:40:35.522Z,16.90
2018-11-13T13:43:04.230Z,16.60
2018-11-13T13:45:32.884Z,17.30
2018-11-13T13:48:01.302Z,17.70
2018-11-13T13:50:29.703Z,17.60
2018-11-13T13:52:58.973Z,17.70
2018-11-13T13:55:27.399Z,17.70
2018-11-13T13:57:55.851Z,18.00
2018-11-13T14:00:24.381Z,17.20
2018-11-13T14:02:52.650Z,17.80
2018-11-13T14:05:21.885Z,17.30
2018-11-13T14:07:50.476Z,16.90
2018-11-13T14:10:18.940Z,16.20
2018-11-13T14:12:47.370Z,16.10
2018-11-13T14:15:15.779Z,15.20
2018-11-13T14:17:44.227Z,14.90
2018-11-13T14:20:15.948Z,14.60
2018-11-13T14:22:44.308Z,14.90
2018-11-13T14:25:13.229Z,14.80
2018-11-13T14:27:41.921Z,14.80
2018-11-13T14:30:16.395Z,16.10
2018-11-13T14:32:45.699Z,15.90
2018-11-13T14:35:14.216Z,16.80
2018-11-13T14:37:42.628Z,17.10
2018-11-13T14:40:19.636Z,17.60
2018-11-13T14:42:48.535Z,16.00
2018-11-13T14:45:17.723Z,15.30
2018-11-13T14:47:46.820Z,15.00
2018-11-13T14:50:16.701Z,16.00
2018-11-13T14:52:45.731Z,15.70
2018-11-13T14:55:16.713Z,15.50
2018-11-13T14:57:45.612Z,14.60
2018-11-13T15:00:17.710Z,14.60
2018-11-13T15:02:46.503Z,15.30
2018-11-13T15:05:16.243Z,15.00
2018-11-13T15:07:45.817Z,15.80
2018-11-13T15:10:17.805Z,15.60
2018-11-13T15:12:46.237Z,15.90
2018-11-13T15:15:14.670Z,16.00
2018-11-13T15:17:43.949Z,15.70
2018-11-13T15:20:15.051Z,15.00
2018-11-13T15:22:44.266Z,14.20
2018-11-13T15:25:14.624Z,13.70
2018-11-13T15:27:44.689Z,13.60
2018-11-13T15:30:17.158Z,13.50
2018-11-13T15:32:47.318Z,13.40
2018-11-13T15:35:15.687Z,13.20
2018-11-13T15:37:44.347Z,13.20
2018-11-13T15:40:15.425Z,13.20
2018-11-13T15:42:44.444Z,13.20
2018-11-13T15:45:14.037Z,13.10
2018-11-13T15:47:43.072Z,13.10
2018-11-13T15:50:15.732Z,13.00
2018-11-13T15:52:44.511Z,13.10
2018-11-13T15:55:13.486Z,13.00
2018-11-13T15:57:42.713Z,13.00
2018-11-13T16:00:31.673Z,12.90
2018-11-13T16:03:03.809Z,12.80
2018-11-13T16:05:44.318Z,12.80
2018-11-13T16:08:12.956Z,12.90
2018-11-13T16:10:41.488Z,12.80
2018-11-13T16:13:10.056Z,12.70
2018-11-13T16:15:39.114Z,12.70
2018-11-13T16:18:09.072Z,12.70
2018-11-13T16:20:37.523Z,12.60
2018-11-13T16:23:06.226Z,12.70
2018-11-13T16:25:34.600Z,12.60
2018-11-13T16:28:03.013Z,12.70
2018-11-13T16:30:32.818Z,12.60
2018-11-13T16:33:01.206Z,12.60
2018-11-13T16:35:30.232Z,12.50
2018-11-13T16:37:59.637Z,12.50
2018-11-13T16:40:29.220Z,12.40
2018-11-13T16:42:57.708Z,12.30
2018-11-13T16:45:26.762Z,12.30
2018-11-13T16:47:55.637Z,12.30
2018-11-13T16:50:27.204Z,12.30
2018-11-13T16:52:56.267Z,12.20
2018-11-13T16:55:30.112Z,12.10
2018-11-13T16:57:59.441Z,12.00
2018-11-13T17:00:27.950Z,11.90
2018-11-13T17:02:56.455Z,11.80
2018-11-13T17:05:25.682Z,11.90
2018-11-13T17:07:53.997Z,11.80
2018-11-13T17:10:26.746Z,11.80
2018-11-13T17:12:55.614Z,11.90
2018-11-13T17:15:25.306Z,11.90
2018-11-13T17:17:54.854Z,11.90
2018-11-13T17:20:23.336Z,11.90
2018-11-13T17:22:52.144Z,11.80
2018-11-13T17:25:21.929Z,11.80
2018-11-13T17:27:51.515Z,11.80
2018-11-13T17:30:23.056Z,11.80
2018-11-13T17:32:52.077Z,11.80
2018-11-13T17:35:21.787Z,11.70
2018-11-13T17:37:50.929Z,11.80
2018-11-13T17:40:21.890Z,11.70
2018-11-13T17:42:51.313Z,11.70
2018-11-13T17:45:21.842Z,11.70
2018-11-13T17:47:50.273Z,11.70
2018-11-13T17:50:21.478Z,11.70
2018-11-13T17:52:50.273Z,11.60
2018-11-13T17:55:19.223Z,11.60
2018-11-13T17:57:48.661Z,11.50
2018-11-13T18:00:26.291Z,11.40
2018-11-13T18:02:54.702Z,11.30
2018-11-13T18:05:24.449Z,11.20
2018-11-13T18:07:53.437Z,11.30
2018-11-13T18:10:22.087Z,11.20
2018-11-13T18:12:50.529Z,11.20
2018-11-13T18:15:21.963Z,11.10
2018-11-13T18:17:50.860Z,11.00
2018-11-13T18:20:25.695Z,11.10
2018-11-13T18:22:54.196Z,11.10
2018-11-13T18:25:22.665Z,11.00
2018-11-13T18:27:52.423Z,11.00
2018-11-13T18:30:23.200Z,11.00
2018-11-13T18:32:51.848Z,11.00
2018-11-13T18:35:21.535Z,10.90
2018-11-13T18:37:50.759Z,10.90
2018-11-13T18:40:19.986Z,10.90
2018-11-13T18:42:49.449Z,11.00
2018-11-13T18:45:21.335Z,10.90
2018-11-13T18:47:49.770Z,10.90
2018-11-13T18:50:20.811Z,10.90
2018-11-13T18:52:49.279Z,10.90
2018-11-13T18:55:18.022Z,10.80
2018-11-13T18:57:46.587Z,10.90
2018-11-13T19:00:18.056Z,10.90
2018-11-13T19:02:46.474Z,10.90
2018-11-13T19:05:15.679Z,10.90
2018-11-13T19:07:44.475Z,10.80
2018-11-13T19:10:16.401Z,10.70
2018-11-13T19:12:45.150Z,10.70
2018-11-13T19:15:14.802Z,10.60
2018-11-13T19:17:43.414Z,10.60
2018-11-13T19:20:14.335Z,10.60
2018-11-13T19:22:42.902Z,10.60
2018-11-13T19:25:16.707Z,10.70
2018-11-13T19:27:46.136Z,10.60
2018-11-13T19:30:15.533Z,10.60
2018-11-13T19:32:44.172Z,10.70
2018-11-13T19:35:13.211Z,10.60
2018-11-13T19:37:41.680Z,10.50
2018-11-13T19:40:14.752Z,10.50
2018-11-13T19:42:43.660Z,10.60
2018-11-13T19:45:12.161Z,10.60
2018-11-13T19:47:40.550Z,10.60
2018-11-13T19:50:11.034Z,10.70
2018-11-13T19:52:39.717Z,10.50
2018-11-13T19:55:09.130Z,10.50
2018-11-13T19:57:37.575Z,10.60
2018-11-13T20:00:08.114Z,10.60
2018-11-13T20:02:36.970Z,10.60
2018-11-13T20:05:06.482Z,10.50
2018-11-13T20:07:35.009Z,10.60
2018-11-13T20:10:03.659Z,10.60
2018-11-13T20:12:32.089Z,10.60
2018-11-13T20:15:00.506Z,10.60
2018-11-13T20:17:29.002Z,10.50
2018-11-13T20:19:57.396Z,10.60
2018-11-13T20:22:25.824Z,10.50
2018-11-13T20:24:54.188Z,10.40
2018-11-13T20:27:22.582Z,10.40
2018-11-13T20:29:51.244Z,10.30
2018-11-13T20:32:19.787Z,10.30
2018-11-13T20:34:48.166Z,10.30
2018-11-13T20:37:16.593Z,10.20
2018-11-13T20:39:45.089Z,10.20
2018-11-13T20:42:13.483Z,10.10
2018-11-13T20:44:41.916Z,10.10
2018-11-13T20:47:10.250Z,10.10
2018-11-13T20:49:38.655Z,10.10
2018-11-13T20:52:07.059Z,10.20
2018-11-13T20:54:35.498Z,10.20
2018-11-13T20:57:03.871Z,10.10
2018-11-13T20:59:32.226Z,10.10
2018-11-13T21:02:00.742Z,10.00
2018-11-13T21:04:29.415Z,9.90
2018-11-13T21:07:04.554Z,10.00
2018-11-13T21:09:32.974Z,10.00
2018-11-13T21:12:01.388Z,10.00
2018-11-13T21:14:29.802Z,9.90
2018-11-13T21:16:58.651Z,10.00
2018-11-13T21:19:26.883Z,9.90
2018-11-13T21:21:55.307Z,9.80
2018-11-13T21:24:23.937Z,9.90
2018-11-13T21:26:52.154Z,9.80
2018-11-13T21:29:20.515Z,9.70
2018-11-13T21:31:48.929Z,9.80
2018-11-13T21:34:17.342Z,9.80
2018-11-13T21:36:45.965Z,9.70
2018-11-13T21:39:14.404Z,9.70
2018-11-13T21:41:42.812Z,9.60
2018-11-13T21:44:11.240Z,9.50
2018-11-13T21:46:39.640Z,9.50
2018-11-13T21:49:08.124Z,9.50
2018-11-13T21:51:37.686Z,9.50
2018-11-13T21:54:06.518Z,9.60
2018-11-13T21:56:34.880Z,9.50
2018-11-13T21:59:03.306Z,9.40
2018-11-13T22:01:31.763Z,9.40
2018-11-13T22:04:00.092Z,9.30
2018-11-13T22:06:28.648Z,9.40
2018-11-13T22:08:57.021Z,9.40
2018-11-13T22:11:25.382Z,9.40
2018-11-13T22:13:53.766Z,9.50
2018-11-13T22:16:22.178Z,9.30
2018-11-13T22:18:51.613Z,9.30
2018-11-13T22:21:20.141Z,9.30
2018-11-13T22:23:48.508Z,9.10
2018-11-13T22:26:16.890Z,9.20
2018-11-13T22:28:45.476Z,9.30
2018-11-13T22:31:13.817Z,9.20
2018-11-13T22:33:42.277Z,9.20
2018-11-13T22:36:10.696Z,9.10
2018-11-13T22:38:39.139Z,9.20
2018-11-13T22:41:07.592Z,9.10
2018-11-13T22:43:36.006Z,9.10
2018-11-13T22:46:04.659Z,9.20
2018-11-13T22:48:33.132Z,9.20
2018-11-13T22:51:01.637Z,9.10
2018-11-13T22:53:30.014Z,9.00
2018-11-13T22:55:58.378Z,9.00
2018-11-13T22:58:26.794Z,8.80
2018-11-13T23:00:55.415Z,8.80
2018-11-13T23:03:23.932Z,8.80
2018-11-13T23:05:52.412Z,8.70
2018-11-13T23:08:21.567Z,8.70
2018-11-13T23:10:50.746Z,8.70
2018-11-13T23:13:19.208Z,8.60
2018-11-13T23:15:47.660Z,8.50
2018-11-13T23:18:16.068Z,8.40
2018-11-13T23:20:44.627Z,8.20
2018-11-13T23:23:13.098Z,8.20
2018-11-13T23:25:41.617Z,8.20
2018-11-13T23:28:10.089Z,8.30
2018-11-13T23:30:38.636Z,8.40
2018-11-13T23:33:07.650Z,8.50
2018-11-13T23:35:35.503Z,8.50
2018-11-13T23:38:04.204Z,8.50
2018-11-13T23:40:32.555Z,8.40
2018-11-13T23:43:00.906Z,8.40
2018-11-13T23:45:29.475Z,8.40
2018-11-13T23:47:57.838Z,8.30
2018-11-13T23:50:26.820Z,8.20
2018-11-13T23:52:54.996Z,8.30
2018-11-13T23:55:23.639Z,8.30
2018-11-13T23:57:52.251Z,8.40
